createdAt,value
2022-10-01T00:01:15.841Z,100505.63
2022-10-01T00:03:43.394Z,100504.84
2022-10-01T00:06:17.739Z,100507.31
2022-10-01T00:08:48.850Z,100485.53
2022-10-01T00:11:19.481Z,100481.78
2022-10-01T00:13:46.342Z,100479.13
2022-10-01T00:16:16.412Z,100472.50
2022-10-01T00:18:45.870Z,100473.13
2022-10-01T00:21:16.255Z,100474.38
2022-10-01T00:23:42.792Z,100463.44
2022-10-01T00:26:13.746Z,100453.09
2022-10-01T00:28:41.325Z,100449.16
2022-10-01T00:31:09.212Z,100439.28
2022-10-01T00:33:36.720Z,100427.84
2022-10-01T00:36:06.180Z,100426.28
2022-10-01T00:38:33.908Z,100405.88
2022-10-01T00:41:01.047Z,100397.41
2022-10-01T00:43:31.716Z,100384.59
2022-10-01T00:46:04.174Z,100375.81
2022-10-01T00:48:37.673Z,100370.78
2022-10-01T00:51:06.551Z,100359.97
2022-10-01T00:53:33.374Z,100358.09
2022-10-01T00:56:00.170Z,100352.47
2022-10-01T00:58:27.102Z,100336.19
2022-10-01T01:00:56.076Z,100345.38
2022-10-01T01:03:23.247Z,100346.78
2022-10-01T01:05:50.328Z,100339.09
2022-10-01T01:08:17.934Z,100334.75
2022-10-01T01:11:24.417Z,100336.13
2022-10-01T01:14:08.337Z,100335.34
2022-10-01T01:16:49.311Z,100336.63
2022-10-01T01:19:30.514Z,100337.41
2022-10-01T01:22:03.004Z,100319.59
2022-10-01T01:24:39.751Z,100299.06
2022-10-01T01:27:34.773Z,100290.31
2022-10-01T01:30:08.536Z,100273.38
2022-10-01T01:32:55.227Z,100276.03
2022-10-01T01:35:26.648Z,100276.81
2022-10-01T01:37:59.077Z,100253.34
2022-10-01T01:40:27.240Z,100248.81
2022-10-01T01:42:56.052Z,100259.16
2022-10-01T01:45:28.630Z,100246.63
2022-10-01T01:47:58.580Z,100247.41
2022-10-01T01:50:28.956Z,100230.66
2022-10-01T01:52:56.573Z,100240.81
2022-10-01T01:55:24.601Z,100234.72
2022-10-01T01:57:51.646Z,100232.66
2022-10-01T02:00:18.219Z,100239.84
2022-10-01T02:02:50.248Z,100243.78
2022-10-01T02:05:21.474Z,100238.47
2022-10-01T02:08:00.520Z,100242.22
2022-10-01T02:10:38.087Z,100245.66
2022-10-01T02:13:24.237Z,100252.56
2022-10-01T02:16:06.858Z,100246.44
2022-10-01T02:18:59.072Z,100247.53
2022-10-01T02:21:39.827Z,100247.53
2022-10-01T02:24:17.074Z,100233.94
2022-10-01T02:26:48.888Z,100244.09
2022-10-01T02:29:19.304Z,100233.75
2022-10-01T02:31:47.540Z,100246.44
2022-10-01T02:34:20.287Z,100229.41
2022-10-01T02:36:48.847Z,100241.94
2022-10-01T02:39:17.416Z,100240.06
2022-10-01T02:41:48.328Z,100234.44
2022-10-01T02:44:23.076Z,100224.56
2022-10-01T02:47:07.914Z,100239.44
2022-10-01T02:49:36.932Z,100231.94
2022-10-01T02:52:24.152Z,100216.72
2022-10-01T02:55:12.182Z,100220.50
2022-10-01T02:57:39.215Z,100231.34
2022-10-01T03:00:10.385Z,100223.66
2022-10-01T03:02:36.882Z,100222.88
2022-10-01T03:05:04.429Z,100234.00
2022-10-01T03:07:34.609Z,100223.81
2022-10-01T03:10:02.831Z,100222.72
2022-10-01T03:12:29.523Z,100213.19
2022-10-01T03:14:56.198Z,100206.75
2022-10-01T03:17:22.904Z,100190.00
2022-10-01T03:19:49.448Z,100202.69
2022-10-01T03:22:22.793Z,100189.56
2022-10-01T03:24:50.547Z,100192.22
2022-10-01T03:27:17.652Z,100188.97
2022-10-01T03:29:45.031Z,100190.53
2022-10-01T03:32:12.249Z,100185.19
2022-10-01T03:34:39.040Z,100187.88
2022-10-01T03:37:05.777Z,100171.28
2022-10-01T03:39:32.512Z,100182.72
2022-10-01T03:41:59.183Z,100183.97
2022-10-01T03:44:25.942Z,100182.09
2022-10-01T03:46:52.406Z,100166.91
2022-10-01T03:49:18.889Z,100184.94
2022-10-01T03:51:45.553Z,100181.19
2022-10-01T03:54:12.268Z,100180.09
2022-10-01T03:56:40.864Z,100177.91
2022-10-01T03:59:07.412Z,100182.44
2022-10-01T04:01:34.222Z,100185.59
2022-10-01T04:04:01.372Z,100194.06
2022-10-01T04:06:27.978Z,100185.75
2022-10-01T04:08:54.422Z,100189.97
2022-10-01T04:11:21.672Z,100192.34
2022-10-01T04:13:48.158Z,100193.59
2022-10-01T04:16:16.229Z,100193.59
2022-10-01T04:18:43.337Z,100199.88
2022-10-01T04:21:09.836Z,100199.09
2022-10-01T04:23:36.473Z,100200.34
2022-10-01T04:26:04.577Z,100199.59
2022-10-01T04:28:31.670Z,100208.81
2022-10-01T04:31:17.126Z,100210.38
2022-10-01T04:33:43.768Z,100217.28
2022-10-01T04:36:10.284Z,100218.84
2022-10-01T04:38:37.004Z,100229.22
2022-10-01T04:41:04.037Z,100228.91
2022-10-01T04:43:30.631Z,100244.59
2022-10-01T04:45:57.131Z,100247.25
2022-10-01T04:48:24.176Z,100251.94
2022-10-01T04:50:50.710Z,100249.28
2022-10-01T04:53:17.163Z,100253.53
2022-10-01T04:55:43.757Z,100258.06
2022-10-01T04:58:10.653Z,100250.53
2022-10-01T05:00:37.229Z,100257.13
2022-10-01T05:03:03.823Z,100269.38
2022-10-01T05:05:33.136Z,100259.19
2022-10-01T05:07:59.673Z,100266.88
2022-10-01T05:10:26.342Z,100269.25
2022-10-01T05:12:53.001Z,100279.59
2022-10-01T05:15:19.879Z,100285.09
2022-10-01T05:17:47.079Z,100287.00
2022-10-01T05:20:19.335Z,100288.25
2022-10-01T05:22:47.312Z,100290.91
2022-10-01T05:25:14.011Z,100290.28
2022-10-01T05:27:41.212Z,100301.28
2022-10-01T05:30:10.541Z,100301.28
2022-10-01T05:32:37.236Z,100308.94
2022-10-01T05:35:05.459Z,100311.31
2022-10-01T05:37:33.452Z,100322.75
2022-10-01T05:40:00.105Z,100323.53
2022-10-01T05:42:26.679Z,100330.72
2022-10-01T05:44:53.192Z,100337.66
2022-10-01T05:47:20.791Z,100327.78
2022-10-01T05:49:47.270Z,100332.63
2022-10-01T05:52:15.693Z,100335.28
2022-10-01T05:54:42.162Z,100335.09
2022-10-01T05:57:09.420Z,100340.44
2022-10-01T05:59:36.404Z,100348.44
2022-10-01T06:02:04.456Z,100353.75
2022-10-01T06:04:31.383Z,100355.94
2022-10-01T06:06:58.086Z,100352.78
2022-10-01T06:09:24.732Z,100351.25
2022-10-01T06:11:51.345Z,100354.97
2022-10-01T06:14:18.120Z,100362.97
2022-10-01T06:16:44.754Z,100352.66
2022-10-01T06:19:11.273Z,100362.50
2022-10-01T06:21:38.045Z,100361.41
2022-10-01T06:24:06.953Z,100365.16
2022-10-01T06:26:33.392Z,100364.38
2022-10-01T06:28:59.895Z,100365.16
2022-10-01T06:31:26.397Z,100362.50
2022-10-01T06:33:53.133Z,100367.22
2022-10-01T06:36:19.698Z,100366.44
2022-10-01T06:38:49.478Z,100366.94
2022-10-01T06:41:16.352Z,100377.25
2022-10-01T06:43:42.935Z,100370.84
2022-10-01T06:46:09.680Z,100367.06
2022-10-01T06:48:36.781Z,100371.03
2022-10-01T06:51:04.166Z,100370.69
2022-10-01T06:53:30.889Z,100381.53
2022-10-01T06:56:03.192Z,100383.63
2022-10-01T06:58:30.135Z,100381.72
2022-10-01T07:01:01.444Z,100388.78
2022-10-01T07:03:28.472Z,100381.28
2022-10-01T07:06:01.576Z,100378.78
2022-10-01T07:08:28.288Z,100379.28
2022-10-01T07:10:59.773Z,100382.91
2022-10-01T07:13:26.306Z,100384.63
2022-10-01T07:15:52.839Z,100389.50
2022-10-01T07:18:19.408Z,100390.47
2022-10-01T07:20:46.243Z,100404.59
2022-10-01T07:23:14.364Z,100419.38
2022-10-01T07:25:42.151Z,100431.16
2022-10-01T07:28:16.690Z,100426.19
2022-10-01T07:30:56.448Z,100431.38
2022-10-01T07:33:23.143Z,100437.03
2022-10-01T07:35:50.196Z,100440.63
2022-10-01T07:38:17.979Z,100437.84
2022-10-01T07:40:44.856Z,100442.22
2022-10-01T07:43:11.397Z,100449.31
2022-10-01T07:45:38.087Z,100439.56
2022-10-01T07:48:05.418Z,100441.94
2022-10-01T07:50:31.995Z,100445.56
2022-10-01T07:52:59.744Z,100443.84
2022-10-01T07:55:28.897Z,100450.91
2022-10-01T07:58:01.525Z,100456.09
2022-10-01T08:00:31.283Z,100455.47
2022-10-01T08:02:58.196Z,100460.69
2022-10-01T08:05:29.200Z,100459.75
2022-10-01T08:08:03.565Z,100463.06
2022-10-01T08:10:31.429Z,100469.31
2022-10-01T08:13:14.820Z,100467.13
2022-10-01T08:15:43.052Z,100471.38
2022-10-01T08:18:11.485Z,100471.38
2022-10-01T08:20:41.579Z,100477.19
2022-10-01T08:23:12.095Z,100474.53
2022-10-01T08:25:39.771Z,100488.03
2022-10-01T08:28:07.357Z,100492.75
2022-10-01T08:30:34.146Z,100489.78
2022-10-01T08:33:04.872Z,100495.59
2022-10-01T08:35:31.557Z,100496.34
2022-10-01T08:38:05.913Z,100496.84
2022-10-01T08:40:41.358Z,100495.75
2022-10-01T08:43:28.200Z,100501.88
2022-10-01T08:46:00.185Z,100499.97
2022-10-01T08:48:40.744Z,100501.22
2022-10-01T08:51:27.736Z,100503.75
2022-10-01T08:54:32.555Z,100512.06
2022-10-01T08:57:02.473Z,100515.38
2022-10-01T08:59:44.249Z,100524.34
2022-10-01T09:02:25.075Z,100530.16
2022-10-01T09:05:01.306Z,100533.00
2022-10-01T09:07:42.041Z,100528.88
2022-10-01T09:10:35.927Z,100519.91
2022-10-01T09:13:32.528Z,100529.66
2022-10-01T09:16:24.091Z,100528.84
2022-10-01T09:19:10.855Z,100533.59
2022-10-01T09:21:54.368Z,100549.13
2022-10-01T09:24:44.943Z,100540.63
2022-10-01T09:27:16.563Z,100543.91
2022-10-01T09:29:51.432Z,100542.66
2022-10-01T09:32:26.149Z,100547.19
2022-10-01T09:34:54.387Z,100544.19
2022-10-01T09:37:40.732Z,100551.88
2022-10-01T09:40:38.553Z,100553.41
2022-10-01T09:43:08.746Z,100553.03
2022-10-01T09:45:37.711Z,100561.19
2022-10-01T09:48:21.576Z,100560.50
2022-10-01T09:50:58.407Z,100556.00
2022-10-01T09:53:48.044Z,100555.94
2022-10-01T09:56:24.602Z,100569.75
2022-10-01T09:58:56.868Z,100562.75
2022-10-01T10:01:37.271Z,100570.28
2022-10-01T10:04:04.468Z,100579.50
2022-10-01T10:06:32.295Z,100597.78
2022-10-01T10:09:01.167Z,100589.91
2022-10-01T10:11:31.043Z,100602.44
2022-10-01T10:14:00.787Z,100603.34
2022-10-01T10:16:38.356Z,100615.88
2022-10-01T10:19:11.748Z,100607.53
2022-10-01T10:21:38.263Z,100619.38
2022-10-01T10:24:19.454Z,100622.06
2022-10-01T10:26:55.364Z,100622.66
2022-10-01T10:29:33.648Z,100635.72
2022-10-01T10:32:06.896Z,100636.97
2022-10-01T10:34:40.928Z,100648.94
2022-10-01T10:37:15.016Z,100650.19
2022-10-01T10:39:46.861Z,100649.97
2022-10-01T10:42:18.811Z,100647.44
2022-10-01T10:44:49.632Z,100663.16
2022-10-01T10:47:19.010Z,100655.41
2022-10-01T10:49:56.581Z,100664.19
2022-10-01T10:52:36.338Z,100671.56
2022-10-01T10:55:40.798Z,100661.22
2022-10-01T10:58:12.104Z,100669.50
2022-10-01T11:00:52.779Z,100685.44
2022-10-01T11:03:29.640Z,100676.84
2022-10-01T11:06:08.770Z,100688.81
2022-10-01T11:08:35.912Z,100694.63
2022-10-01T11:11:31.771Z,100698.56
2022-10-01T11:14:04.289Z,100707.22
2022-10-01T11:17:20.817Z,100710.16
2022-10-01T11:20:01.216Z,100712.44
2022-10-01T11:23:17.065Z,100721.06
2022-10-01T11:26:11.731Z,100726.19
2022-10-01T11:28:48.593Z,100736.34
2022-10-01T11:31:38.293Z,100737.56
2022-10-01T11:34:37.445Z,100751.56
2022-10-01T11:37:37.435Z,100746.13
2022-10-01T11:40:15.953Z,100753.09
2022-10-01T11:42:46.687Z,100758.66
2022-10-01T11:45:23.281Z,100763.09
2022-10-01T11:48:04.527Z,100771.28
2022-10-01T11:50:51.982Z,100763.09
2022-10-01T11:53:33.373Z,100777.13
2022-10-01T11:56:22.647Z,100778.34
2022-10-01T11:59:01.277Z,100774.19
2022-10-01T12:01:34.943Z,100784.22
2022-10-01T12:04:20.250Z,100775.59
2022-10-01T12:07:03.976Z,100783.25
2022-10-01T12:09:53.990Z,100788.16
2022-10-01T12:12:50.831Z,100802.09
2022-10-01T12:15:28.824Z,100812.69
2022-10-01T12:18:29.472Z,100823.94
2022-10-01T12:21:14.272Z,100810.38
2022-10-01T12:23:53.400Z,100807.22
2022-10-01T12:26:51.335Z,100803.09
2022-10-01T12:29:31.385Z,100805.31
2022-10-01T12:32:15.837Z,100810.16
2022-10-01T12:35:32.066Z,100813.38
2022-10-01T12:38:27.930Z,100819.75
2022-10-01T12:41:07.020Z,100816.91
2022-10-01T12:44:14.548Z,100822.63
2022-10-01T12:47:00.050Z,100835.50
2022-10-01T12:49:48.298Z,100846.28
2022-10-01T12:52:42.512Z,100852.03
2022-10-01T12:55:34.480Z,100854.66
2022-10-01T12:58:17.329Z,100859.59
2022-10-01T13:00:58.062Z,100857.56
2022-10-01T13:03:50.148Z,100868.44
2022-10-01T13:06:34.697Z,100862.81
2022-10-01T13:09:32.910Z,100864.00
2022-10-01T13:12:26.458Z,100863.66
2022-10-01T13:14:54.163Z,100865.50
2022-10-01T13:17:34.781Z,100875.44
2022-10-01T13:20:13.781Z,100881.94
2022-10-01T13:22:51.556Z,100885.25
2022-10-01T13:25:57.743Z,100888.53
2022-10-01T13:28:33.272Z,100885.53
2022-10-01T13:31:10.155Z,100896.97
2022-10-01T13:33:37.354Z,100901.50
2022-10-01T13:36:10.905Z,100908.53
2022-10-01T13:38:46.167Z,100896.56
2022-10-01T13:41:27.655Z,100914.72
2022-10-01T13:44:22.984Z,100908.81
2022-10-01T13:46:53.362Z,100919.56
2022-10-01T13:49:30.115Z,100928.94
2022-10-01T13:51:57.899Z,100933.63
2022-10-01T13:54:47.507Z,100939.19
2022-10-01T13:57:29.766Z,100938.41
2022-10-01T14:00:01.442Z,100933.81
2022-10-01T14:02:32.236Z,100937.94
2022-10-01T14:05:19.870Z,100953.00
2022-10-01T14:07:50.317Z,100966.31
2022-10-01T14:10:18.070Z,100960.03
2022-10-01T14:13:05.236Z,100949.94
2022-10-01T14:16:03.450Z,100970.31
2022-10-01T14:18:36.367Z,100958.66
2022-10-01T14:21:47.194Z,100976.78
2022-10-01T14:24:57.788Z,100973.66
2022-10-01T14:27:41.733Z,100974.56
2022-10-01T14:30:21.116Z,100969.06
2022-10-01T14:33:06.270Z,100983.94
2022-10-01T14:35:38.532Z,100984.59
2022-10-01T14:38:13.216Z,100998.81
2022-10-01T14:40:42.084Z,101002.59
2022-10-01T14:43:20.646Z,101002.66
2022-10-01T14:45:52.505Z,101001.72
2022-10-01T14:48:19.190Z,101006.84
2022-10-01T14:50:52.594Z,101010.69
2022-10-01T14:53:22.419Z,101008.94
2022-10-01T14:55:50.957Z,101014.34
2022-10-01T14:58:27.392Z,101015.97
2022-10-01T15:00:56.459Z,101015.19
2022-10-01T15:03:23.402Z,101025.94
2022-10-01T15:05:50.787Z,101032.41
2022-10-01T15:08:38.081Z,101047.22
2022-10-01T15:11:11.047Z,101050.91
2022-10-01T15:13:40.961Z,101043.59
2022-10-01T15:16:21.412Z,101043.41
2022-10-01T15:18:56.836Z,101050.19
2022-10-01T15:21:30.893Z,101050.97
2022-10-01T15:24:02.982Z,101060.59
2022-10-01T15:26:31.492Z,101046.09
2022-10-01T15:29:12.182Z,101056.50
2022-10-01T15:31:39.398Z,101060.13
2022-10-01T15:34:11.067Z,101067.06
2022-10-01T15:36:39.309Z,101062.47
2022-10-01T15:39:27.505Z,101070.22
2022-10-01T15:41:55.511Z,101074.78
2022-10-01T15:44:38.644Z,101085.19
2022-10-01T15:47:35.568Z,101090.56
2022-10-01T15:50:03.604Z,101092.91
2022-10-01T15:52:54.224Z,101095.09
2022-10-01T15:55:26.636Z,101100.47
2022-10-01T15:58:07.546Z,101099.69
2022-10-01T16:00:47.566Z,101105.66
2022-10-01T16:03:23.261Z,101100.31
2022-10-01T16:05:51.411Z,101109.91
2022-10-01T16:08:21.883Z,101112.59
2022-10-01T16:11:09.400Z,101117.66
2022-10-01T16:13:39.265Z,101122.72
2022-10-01T16:16:24.736Z,101127.25
2022-10-01T16:19:00.133Z,101121.41
2022-10-01T16:21:27.024Z,101125.50
2022-10-01T16:23:55.918Z,101125.66
2022-10-01T16:26:32.542Z,101139.34
2022-10-01T16:29:22.590Z,101133.22
2022-10-01T16:31:50.411Z,101144.22
2022-10-01T16:34:19.557Z,101143.75
2022-10-01T16:36:46.731Z,101146.72
2022-10-01T16:39:15.076Z,101146.25
2022-10-01T16:41:44.075Z,101150.81
2022-10-01T16:44:13.647Z,101150.34
2022-10-01T16:46:41.227Z,101161.69
2022-10-01T16:49:15.633Z,101154.72
2022-10-01T16:51:42.718Z,101160.09
2022-10-01T16:54:21.536Z,101173.78
2022-10-01T16:56:50.545Z,101173.00
2022-10-01T16:59:17.117Z,101181.03
2022-10-01T17:01:44.573Z,101173.78
2022-10-01T17:04:13.507Z,101181.03
2022-10-01T17:06:41.176Z,101187.50
2022-10-01T17:09:07.739Z,101200.06
2022-10-01T17:11:34.930Z,101200.06
2022-10-01T17:14:03.014Z,101201.97
2022-10-01T17:16:29.683Z,101198.81
2022-10-01T17:18:56.802Z,101198.31
2022-10-01T17:21:23.583Z,101202.91
2022-10-01T17:23:53.520Z,101209.66
2022-10-01T17:26:20.376Z,101200.81
2022-10-01T17:28:47.050Z,101212.94
2022-10-01T17:31:18.099Z,101206.63
2022-10-01T17:33:45.233Z,101203.75
2022-10-01T17:36:11.889Z,101209.72
2022-10-01T17:38:40.412Z,101209.38
2022-10-01T17:41:07.706Z,101230.59
2022-10-01T17:43:34.285Z,101234.19
2022-10-01T17:46:01.198Z,101235.06
2022-10-01T17:48:28.886Z,101243.69
2022-10-01T17:51:07.341Z,101244.59
2022-10-01T17:53:41.900Z,101254.34
2022-10-01T17:56:14.662Z,101253.34
2022-10-01T17:58:45.388Z,101259.28
2022-10-01T18:01:19.819Z,101266.66
2022-10-01T18:03:46.894Z,101266.94
2022-10-01T18:06:15.986Z,101264.56
2022-10-01T18:08:55.037Z,101273.50
2022-10-01T18:11:23.093Z,101278.34
2022-10-01T18:13:51.040Z,101282.72
2022-10-01T18:16:19.474Z,101285.19
2022-10-01T18:21:33.160Z,101293.34
2022-10-01T18:24:04.244Z,101298.19
2022-10-01T18:26:32.220Z,101305.72
2022-10-01T18:28:58.925Z,101308.19
2022-10-01T18:31:35.358Z,101310.38
2022-10-01T18:34:06.014Z,101319.78
2022-10-01T18:36:38.407Z,101318.50
2022-10-01T18:39:32.432Z,101324.41
2022-10-01T18:41:59.193Z,101332.22
2022-10-01T18:44:26.228Z,101336.31
2022-10-01T18:47:22.960Z,101336.09
2022-10-01T18:50:26.851Z,101345.50
2022-10-01T18:53:40.013Z,101342.72
2022-10-01T18:56:18.532Z,101345.19
2022-10-01T18:59:14.097Z,101350.34
2022-10-01T19:01:53.555Z,101343.69
2022-10-01T19:05:01.511Z,101353.69
2022-10-01T19:07:53.724Z,101370.56
2022-10-01T19:10:39.296Z,101362.56
2022-10-01T19:13:20.505Z,101367.41
2022-10-01T19:16:39.338Z,101370.38
2022-10-01T19:20:09.936Z,101368.28
2022-10-01T19:23:21.754Z,101380.63
2022-10-01T19:26:11.031Z,101382.81
2022-10-01T19:29:18.953Z,101385.47
2022-10-01T19:32:11.439Z,101384.97
2022-10-01T19:34:48.033Z,101379.13
2022-10-01T19:37:39.439Z,101386.63
2022-10-01T19:40:42.203Z,101389.31
2022-10-01T19:43:19.128Z,101391.97
2022-10-01T19:45:56.363Z,101390.13
2022-10-01T19:48:35.977Z,101395.16
2022-10-01T19:51:08.041Z,101396.75
2022-10-01T19:53:37.523Z,101399.44
2022-10-01T19:56:05.328Z,101410.91
2022-10-01T19:58:32.741Z,101409.03
2022-10-01T20:01:02.032Z,101402.59
2022-10-01T20:03:40.672Z,101406.34
2022-10-01T20:06:25.623Z,101406.94
2022-10-01T20:08:57.452Z,101420.56
2022-10-01T20:11:36.805Z,101429.69
2022-10-01T20:15:02.999Z,101426.19
2022-10-01T20:17:38.697Z,101427.56
2022-10-01T20:20:26.473Z,101431.31
2022-10-01T20:23:12.293Z,101444.44
2022-10-01T20:25:55.963Z,101435.94
2022-10-01T20:28:42.066Z,101442.66
2022-10-01T20:31:18.921Z,101446.38
2022-10-01T20:34:00.124Z,101446.66
2022-10-01T20:36:38.577Z,101448.84
2022-10-01T20:39:15.994Z,101447.53
2022-10-01T20:41:48.093Z,101444.38
2022-10-01T20:44:21.862Z,101445.47
2022-10-01T20:46:52.274Z,101449.50
2022-10-01T20:49:29.948Z,101452.19
2022-10-01T20:52:08.684Z,101455.69
2022-10-01T20:54:46.548Z,101468.25
2022-10-01T20:57:15.471Z,101457.84
2022-10-01T20:59:49.021Z,101458.94
2022-10-01T21:02:54.795Z,101465.66
2022-10-01T21:05:37.327Z,101468.59
2022-10-01T21:08:17.956Z,101458.47
2022-10-01T21:10:53.888Z,101464.13
2022-10-01T21:13:27.882Z,101468.66
2022-10-01T21:16:37.303Z,101471.91
2022-10-01T21:19:13.040Z,101472.19
2022-10-01T21:21:56.101Z,101474.63
2022-10-01T21:24:47.280Z,101468.00
2022-10-01T21:27:34.512Z,101470.66
2022-10-01T21:30:11.797Z,101469.88
2022-10-01T21:33:13.429Z,101473.13
2022-10-01T21:36:06.994Z,101474.19
2022-10-01T21:38:41.063Z,101469.94
2022-10-01T21:41:33.078Z,101478.22
2022-10-01T21:44:34.748Z,101470.78
2022-10-01T21:47:08.004Z,101470.25
2022-10-01T21:50:17.694Z,101476.19
2022-10-01T21:53:10.260Z,101470.34
2022-10-01T21:56:06.566Z,101469.53
2022-10-01T21:59:07.828Z,101467.94
2022-10-01T22:01:57.234Z,101471.72
2022-10-01T22:04:46.605Z,101472.75
2022-10-01T22:07:23.986Z,101481.34
2022-10-01T22:10:14.817Z,101498.16
2022-10-01T22:12:45.890Z,101489.63
2022-10-01T22:15:23.070Z,101490.69
2022-10-01T22:17:53.713Z,101488.84
2022-10-01T22:20:24.187Z,101494.19
2022-10-01T22:22:56.668Z,101495.50
2022-10-01T22:25:24.240Z,101494.72
2022-10-01T22:27:56.639Z,101506.50
2022-10-01T22:30:29.004Z,101508.34
2022-10-01T22:33:07.987Z,101506.50
2022-10-01T22:35:44.201Z,101503.00
2022-10-01T22:38:30.832Z,101509.94
2022-10-01T22:41:07.839Z,101517.38
2022-10-01T22:43:34.999Z,101528.56
2022-10-01T22:46:13.703Z,101537.88
2022-10-01T22:49:25.351Z,101525.06
2022-10-01T22:52:17.877Z,101538.06
2022-10-01T22:55:05.872Z,101534.81
2022-10-01T22:57:45.125Z,101533.16
2022-10-01T23:00:14.532Z,101531.00
2022-10-01T23:03:25.002Z,101528.06
2022-10-01T23:06:36.249Z,101521.88
2022-10-01T23:09:26.981Z,101525.34
2022-10-01T23:12:09.541Z,101525.06
2022-10-01T23:14:55.908Z,101534.94
2022-10-01T23:17:29.353Z,101529.59
2022-10-01T23:20:20.576Z,101537.88
2022-10-01T23:23:02.660Z,101537.09
2022-10-01T23:25:44.047Z,101540.78
2022-10-01T23:28:45.392Z,101543.47
2022-10-01T23:31:36.996Z,101534.94
2022-10-01T23:34:39.800Z,101544.84
2022-10-01T23:37:43.657Z,101558.19
2022-10-01T23:40:20.617Z,101554.69
2022-10-01T23:43:00.612Z,101551.22
2022-10-01T23:45:34.344Z,101551.03
2022-10-01T23:48:27.429Z,101555.53
2022-10-01T23:51:03.906Z,101567.31
2022-10-01T23:54:02.632Z,101558.78
2022-10-01T23:56:48.658Z,101566.81
2022-10-01T23:59:36.882Z,101566.00
